Time;durP1;ratioP1;P1;durP2;ratioP2;P2;SDS_P1;SDS_P2;PMS_P1;PMS_P2;Temp;Humidity;BMP_temperature;BMP_pressure;BME280_temperature;BME280_humidity;BME280_pressure;Samples;Min_cycle;Max_cycle;Signal;HPM_P1;HPM_P2
2022/01/18 00:00:48;;;;;;;;;;;-0.30;99.90;;;;;;5146955;27;19918;-80
2022/01/18 00:03:14;;;;;;;;;;;-0.20;99.90;;;;;;5156614;27;19946;-78
2022/01/18 00:05:42;;;;;;;;;;;-0.20;99.90;;;;;;5155834;27;19913;-79
2022/01/18 00:08:08;;;;;;;;;;;-0.30;99.90;;;;;;5156278;27;20237;-80
2022/01/18 00:10:33;;;;;;;;;;;-0.30;99.90;;;;;;5155470;27;19964;-79
2022/01/18 00:18:06;;;;;;;;;;;-0.30;99.90;;;;;;5155911;27;19907;-80
2022/01/18 00:21:50;;;;;;;;;;;-0.30;99.90;;;;;;5156326;27;19907;-80
2022/01/18 00:23:32;;;;;;;;;;;-0.30;99.90;;;;;;5137568;27;19907;-81
2022/01/18 00:25:58;;;;;;;;;;;-0.30;99.90;;;;;;5155907;27;20065;-79
2022/01/18 00:28:25;;;;;;;;;;;-0.20;99.90;;;;;;5156210;27;19939;-79
2022/01/18 00:34:37;;;;;;;;;;;-0.30;99.90;;;;;;5156042;27;20003;-80
2022/01/18 00:36:52;;;;;;;;;;;-0.30;99.90;;;;;;5127853;27;19919;-78
2022/01/18 00:39:15;;;;;;;;;;;-0.40;99.90;;;;;;5134120;27;19959;-77
2022/01/18 00:41:41;;;;;;;;;;;-0.50;99.90;;;;;;5134535;27;19963;-75
2022/01/18 00:44:07;;;;;;;;;;;-0.50;99.90;;;;;;5135143;27;20360;-80
2022/01/18 00:46:33;;;;;;;;;;;-0.40;99.90;;;;;;5135088;27;19911;-80
2022/01/18 00:49:01;;;;;;;;;;;-0.40;99.90;;;;;;5134158;27;20469;-80
2022/01/18 00:51:28;;;;;;;;;;;-0.40;99.90;;;;;;5134730;27;20005;-80
2022/01/18 00:53:57;;;;;;;;;;;-0.50;99.90;;;;;;5134161;27;19937;-79
2022/01/18 00:56:25;;;;;;;;;;;-0.50;99.90;;;;;;5134937;27;19908;-80
2022/01/18 00:58:52;;;;;;;;;;;-0.40;99.90;;;;;;5134150;27;19916;-80
2022/01/18 01:01:18;;;;;;;;;;;-0.40;99.90;;;;;;5134477;27;19911;-79
2022/01/18 01:03:44;;;;;;;;;;;-0.50;99.90;;;;;;5133957;27;19912;-79
2022/01/18 01:06:10;;;;;;;;;;;-0.50;99.90;;;;;;5134747;27;19912;-81
2022/01/18 01:08:35;;;;;;;;;;;-0.50;99.90;;;;;;5133731;27;19915;-81
2022/01/18 01:11:06;;;;;;;;;;;-0.50;99.90;;;;;;5141874;27;19921;-80
2022/01/18 01:13:32;;;;;;;;;;;-0.50;99.90;;;;;;5134360;27;20314;-81
2022/01/18 01:36:04;;;;;;;;;;;-0.70;99.90;;;;;;5133467;27;19908;-81
2022/01/18 01:45:40;;;;;;;;;;;-0.70;99.90;;;;;;5134280;27;19946;-79
2022/01/18 01:48:06;;;;;;;;;;;-0.60;99.90;;;;;;5133445;27;20267;-79
2022/01/18 01:50:49;;;;;;;;;;;-0.70;99.90;;;;;;5133837;27;19915;-81
2022/01/18 01:53:16;;;;;;;;;;;-0.70;99.90;;;;;;5133985;27;19911;-80
2022/01/18 01:55:41;;;;;;;;;;;-0.70;99.90;;;;;;5134359;27;19953;-77
2022/01/18 01:58:07;;;;;;;;;;;-0.70;99.90;;;;;;5133440;27;19907;-80
2022/01/18 02:00:33;;;;;;;;;;;-0.80;99.90;;;;;;5133799;27;19912;-81
2022/01/18 02:02:59;;;;;;;;;;;-0.80;99.90;;;;;;5133502;27;19908;-80
2022/01/18 02:05:24;;;;;;;;;;;-0.80;99.90;;;;;;5135845;27;19911;-79
2022/01/18 02:07:50;;;;;;;;;;;-0.80;99.90;;;;;;5136021;27;20378;-81
2022/01/18 02:10:16;;;;;;;;;;;-0.80;99.90;;;;;;5134439;27;19920;-80
2022/01/18 02:12:41;;;;;;;;;;;-0.80;99.90;;;;;;5133534;27;19952;-80
2022/01/18 02:15:15;;;;;;;;;;;-0.80;99.90;;;;;;5133216;27;19907;-78
2022/01/18 02:23:12;;;;;;;;;;;-0.80;99.90;;;;;;5146670;27;19913;-80
2022/01/18 02:25:38;;;;;;;;;;;-0.80;99.90;;;;;;5150645;27;20010;-79
2022/01/18 02:28:03;;;;;;;;;;;-0.90;99.90;;;;;;5153692;27;19956;-80
2022/01/18 02:30:29;;;;;;;;;;;-1.00;99.90;;;;;;5154008;27;20367;-78
2022/01/18 02:32:56;;;;;;;;;;;-1.00;99.90;;;;;;5153484;27;19907;-80
2022/01/18 02:35:21;;;;;;;;;;;-1.00;99.90;;;;;;5156197;27;20347;-79
2022/01/18 02:37:53;;;;;;;;;;;-1.10;99.90;;;;;;5157472;27;19951;-77
2022/01/18 02:40:19;;;;;;;;;;;-1.10;99.90;;;;;;5158726;27;19994;-80
2022/01/18 02:42:55;;;;;;;;;;;-1.10;99.90;;;;;;5157913;27;19962;-77
2022/01/18 02:45:21;;;;;;;;;;;-1.00;99.90;;;;;;5158541;27;19907;-78
2022/01/18 02:47:47;;;;;;;;;;;-1.00;99.90;;;;;;5157559;27;20313;-76
2022/01/18 02:50:13;;;;;;;;;;;-0.90;99.90;;;;;;5157869;27;19926;-80
2022/01/18 02:52:39;;;;;;;;;;;-0.90;99.90;;;;;;5157679;27;19914;-79
2022/01/18 02:55:05;;;;;;;;;;;-0.80;99.90;;;;;;5157324;27;20002;-79
2022/01/18 02:57:36;;;;;;;;;;;-0.80;99.90;;;;;;5157686;27;19907;-80
2022/01/18 03:00:25;;;;;;;;;;;-0.80;99.90;;;;;;5156953;27;19949;-79
2022/01/18 03:05:34;;;;;;;;;;;-0.80;99.90;;;;;;5157762;27;19952;-80
2022/01/18 03:08:00;;;;;;;;;;;-0.90;99.90;;;;;;5157021;27;19910;-80
2022/01/18 03:10:25;;;;;;;;;;;-0.90;99.90;;;;;;5157580;27;19919;-79
2022/01/18 03:12:51;;;;;;;;;;;-1.10;99.90;;;;;;5156727;27;19911;-79
2022/01/18 03:15:16;;;;;;;;;;;-1.00;99.90;;;;;;5158067;27;19976;-80
2022/01/18 03:17:42;;;;;;;;;;;-1.10;99.90;;;;;;5157549;27;19943;-80
2022/01/18 03:20:11;;;;;;;;;;;-1.10;99.90;;;;;;5137982;27;19910;-79
2022/01/18 03:22:37;;;;;;;;;;;-1.10;99.90;;;;;;5157295;27;19940;-79
2022/01/18 03:25:24;;;;;;;;;;;-1.20;99.90;;;;;;5155943;27;19911;-79
2022/01/18 03:28:04;;;;;;;;;;;-1.20;99.90;;;;;;5156537;27;19915;-77
2022/01/18 03:30:30;;;;;;;;;;;-1.30;99.90;;;;;;5157254;27;19922;-78
2022/01/18 03:32:55;;;;;;;;;;;-1.30;99.90;;;;;;5156120;27;19907;-78
2022/01/18 03:35:23;;;;;;;;;;;-1.30;99.90;;;;;;5138768;27;19955;-78
2022/01/18 03:37:48;;;;;;;;;;;-1.30;99.90;;;;;;5135960;27;19911;-75
2022/01/18 03:40:14;;;;;;;;;;;-1.30;99.90;;;;;;5135896;27;19908;-81
2022/01/18 03:42:45;;;;;;;;;;;-1.20;99.90;;;;;;5136058;27;19919;-79
2022/01/18 03:45:24;;;;;;;;;;;-1.20;99.90;;;;;;5135410;27;20390;-79
2022/01/18 03:47:50;;;;;;;;;;;-1.20;99.90;;;;;;5135662;27;19907;-76
2022/01/18 03:50:16;;;;;;;;;;;-1.10;99.90;;;;;;5135925;27;19915;-80
2022/01/18 03:52:43;;;;;;;;;;;-1.10;99.90;;;;;;5135754;27;20398;-79
2022/01/18 03:55:09;;;;;;;;;;;-1.10;99.90;;;;;;5135048;27;20501;-80
2022/01/18 03:57:35;;;;;;;;;;;-1.10;99.90;;;;;;5136114;27;19907;-80
2022/01/18 04:00:01;;;;;;;;;;;-1.10;99.90;;;;;;5135091;27;19914;-79
2022/01/18 04:02:27;;;;;;;;;;;-1.00;99.90;;;;;;5136140;27;20372;-79
2022/01/18 04:04:52;;;;;;;;;;;-1.00;99.90;;;;;;5116544;27;19918;-79
2022/01/18 04:07:18;;;;;;;;;;;-1.00;99.90;;;;;;5135478;27;20390;-80
2022/01/18 04:09:43;;;;;;;;;;;-1.00;99.90;;;;;;5135727;27;20018;-80
2022/01/18 04:12:09;;;;;;;;;;;-1.00;99.90;;;;;;5122190;27;19911;-79
2022/01/18 04:14:35;;;;;;;;;;;-0.90;99.90;;;;;;5156264;27;19906;-79
2022/01/18 04:30:42;;;;;;;;;;;-0.90;99.90;;;;;;5156046;27;19915;-79
2022/01/18 04:33:08;;;;;;;;;;;-1.00;99.90;;;;;;5155632;27;20730;-79
2022/01/18 04:35:33;;;;;;;;;;;-1.10;99.90;;;;;;5155987;27;19964;-79
2022/01/18 04:37:59;;;;;;;;;;;-1.00;99.90;;;;;;5136657;27;19908;-79
2022/01/18 04:40:29;;;;;;;;;;;-1.00;99.90;;;;;;5157187;27;19976;-80
2022/01/18 04:50:49;;;;;;;;;;;-1.00;99.90;;;;;;5155511;27;19960;-78
2022/01/18 04:53:15;;;;;;;;;;;-1.00;99.90;;;;;;5154748;27;20336;-79
2022/01/18 04:55:40;;;;;;;;;;;-0.90;99.90;;;;;;5155656;27;19936;-79
2022/01/18 04:58:06;;;;;;;;;;;-0.90;99.90;;;;;;5154539;27;19907;-79
2022/01/18 05:00:32;;;;;;;;;;;-0.90;99.90;;;;;;5155494;27;19959;-79
2022/01/18 05:02:57;;;;;;;;;;;-0.90;99.90;;;;;;5136272;27;19914;-77
2022/01/18 05:05:26;;;;;;;;;;;-0.80;99.90;;;;;;5154749;27;19914;-78
2022/01/18 05:07:52;;;;;;;;;;;-0.80;99.90;;;;;;5155197;27;19907;-77
2022/01/18 05:10:23;;;;;;;;;;;-0.70;99.90;;;;;;5154798;27;19919;-79
2022/01/18 05:12:52;;;;;;;;;;;-0.80;99.90;;;;;;5155181;27;19907;-78
2022/01/18 05:15:43;;;;;;;;;;;-0.80;99.90;;;;;;5154818;27;20035;-79
2022/01/18 05:23:33;;;;;;;;;;;-1.00;99.90;;;;;;5154632;27;19918;-79
2022/01/18 05:25:59;;;;;;;;;;;-0.90;99.90;;;;;;5154168;27;19907;-79
2022/01/18 05:28:25;;;;;;;;;;;-0.90;99.90;;;;;;5155037;27;20044;-79
2022/01/18 05:30:50;;;;;;;;;;;-0.90;99.90;;;;;;5154707;27;19988;-78
2022/01/18 05:33:18;;;;;;;;;;;-0.90;99.90;;;;;;5164849;27;20367;-79
2022/01/18 05:35:44;;;;;;;;;;;-0.80;99.90;;;;;;5165926;27;20393;-79
2022/01/18 05:38:10;;;;;;;;;;;-0.80;99.90;;;;;;5154814;27;20010;-77
2022/01/18 05:40:36;;;;;;;;;;;-0.80;99.90;;;;;;5154748;27;19907;-78
2022/01/18 05:43:01;;;;;;;;;;;-0.80;99.90;;;;;;5153930;27;19907;-78
2022/01/18 05:45:27;;;;;;;;;;;-0.70;99.90;;;;;;5154047;27;19914;-79
2022/01/18 05:47:52;;;;;;;;;;;-0.60;99.90;;;;;;5154343;27;19958;-76
2022/01/18 05:50:18;;;;;;;;;;;-0.50;99.90;;;;;;5154254;27;19915;-80
2022/01/18 05:52:44;;;;;;;;;;;-0.60;99.90;;;;;;5135872;27;19907;-79
2022/01/18 05:55:09;;;;;;;;;;;-0.60;99.90;;;;;;5135185;27;19914;-79
2022/01/18 05:57:35;;;;;;;;;;;-0.50;99.90;;;;;;5154599;27;19907;-79
2022/01/18 06:00:05;;;;;;;;;;;-0.40;99.90;;;;;;5148550;27;19946;-78
2022/01/18 06:07:53;;;;;;;;;;;-0.20;99.90;;;;;;5133645;27;20375;-76
2022/01/18 06:10:19;;;;;;;;;;;-0.20;99.90;;;;;;5132030;27;19919;-80
2022/01/18 06:12:44;;;;;;;;;;;-0.20;99.90;;;;;;5133444;27;20370;-80
2022/01/18 06:15:10;;;;;;;;;;;-0.20;99.90;;;;;;5132677;27;19908;-79
2022/01/18 06:17:36;;;;;;;;;;;-0.20;99.90;;;;;;5115069;28;19947;-79
2022/01/18 06:20:01;;;;;;;;;;;-0.20;99.90;;;;;;5132742;27;19908;-79
2022/01/18 06:22:27;;;;;;;;;;;-0.20;99.90;;;;;;5133693;27;19915;-78
2022/01/18 06:24:53;;;;;;;;;;;-0.20;99.90;;;;;;5132616;27;19915;-78
2022/01/18 06:27:18;;;;;;;;;;;-0.30;99.90;;;;;;5132638;28;19908;-77
2022/01/18 06:29:44;;;;;;;;;;;-0.20;99.90;;;;;;5133395;28;20002;-78
2022/01/18 06:32:09;;;;;;;;;;;-0.20;99.90;;;;;;5132618;28;20020;-79
2022/01/18 06:34:36;;;;;;;;;;;-0.20;99.90;;;;;;5133195;28;19914;-78
2022/01/18 06:37:01;;;;;;;;;;;-0.20;99.90;;;;;;5145217;27;19911;-78
2022/01/18 06:39:27;;;;;;;;;;;-0.20;99.90;;;;;;5153654;27;19913;-78
2022/01/18 06:41:53;;;;;;;;;;;-0.20;99.90;;;;;;5154017;27;20030;-79
2022/01/18 06:44:18;;;;;;;;;;;-0.20;99.90;;;;;;5152822;27;19919;-79
2022/01/18 06:46:44;;;;;;;;;;;-0.10;99.90;;;;;;5153406;27;19914;-79
2022/01/18 06:49:09;;;;;;;;;;;0.00;99.90;;;;;;5153154;27;20356;-78
2022/01/18 06:51:35;;;;;;;;;;;0.00;99.90;;;;;;5153853;27;19923;-78
2022/01/18 06:54:02;;;;;;;;;;;-0.10;99.90;;;;;;5152955;27;19946;-78
2022/01/18 06:56:27;;;;;;;;;;;-0.10;99.90;;;;;;5153615;27;19911;-78
2022/01/18 06:58:53;;;;;;;;;;;-0.10;99.90;;;;;;5153339;27;19938;-79
2022/01/18 07:01:19;;;;;;;;;;;-0.10;99.90;;;;;;5153330;27;19976;-78
2022/01/18 07:03:47;;;;;;;;;;;-0.10;99.90;;;;;;5153940;27;19911;-78
2022/01/18 07:06:12;;;;;;;;;;;0.00;99.90;;;;;;5152413;27;20006;-78
2022/01/18 07:08:38;;;;;;;;;;;0.00;99.90;;;;;;5153811;27;19993;-78
2022/01/18 07:11:05;;;;;;;;;;;0.00;99.90;;;;;;5152538;27;20018;-76
2022/01/18 07:13:31;;;;;;;;;;;0.00;99.90;;;;;;5134942;27;19964;-78
2022/01/18 07:15:56;;;;;;;;;;;0.10;99.90;;;;;;5114019;28;19911;-76
2022/01/18 07:18:22;;;;;;;;;;;0.10;99.90;;;;;;5132589;28;20411;-78
2022/01/18 07:20:48;;;;;;;;;;;0.10;99.90;;;;;;5133487;27;19912;-78
2022/01/18 07:23:13;;;;;;;;;;;0.20;99.90;;;;;;5136247;27;19958;-78
2022/01/18 07:25:42;;;;;;;;;;;0.20;99.90;;;;;;5136362;27;20347;-77
2022/01/18 07:28:09;;;;;;;;;;;0.20;99.90;;;;;;5135741;27;19911;-78
2022/01/18 07:30:35;;;;;;;;;;;0.20;99.90;;;;;;5135940;27;19915;-78
2022/01/18 07:33:01;;;;;;;;;;;0.20;99.90;;;;;;5135588;27;19943;-76
2022/01/18 07:35:27;;;;;;;;;;;0.30;99.90;;;;;;5136457;27;19954;-78
2022/01/18 07:37:53;;;;;;;;;;;0.20;99.90;;;;;;5136568;27;19926;-78
2022/01/18 07:40:18;;;;;;;;;;;0.30;99.90;;;;;;5135403;27;19911;-78
2022/01/18 07:42:44;;;;;;;;;;;0.40;99.90;;;;;;5136245;27;19908;-77
2022/01/18 07:45:10;;;;;;;;;;;0.40;99.90;;;;;;5135430;27;20002;-79
2022/01/18 07:47:35;;;;;;;;;;;0.40;99.90;;;;;;5135718;27;19946;-78
2022/01/18 07:50:01;;;;;;;;;;;0.40;99.90;;;;;;5135398;27;20344;-76
2022/01/18 07:52:27;;;;;;;;;;;0.30;99.90;;;;;;5135879;27;20392;-80
2022/01/18 07:54:52;;;;;;;;;;;0.40;99.90;;;;;;5135855;27;19911;-79
2022/01/18 07:57:19;;;;;;;;;;;0.40;99.90;;;;;;5134831;27;19907;-79
2022/01/18 07:59:45;;;;;;;;;;;0.40;99.90;;;;;;5143953;27;19967;-79
2022/01/18 08:02:10;;;;;;;;;;;0.40;99.90;;;;;;5155441;27;19943;-78
2022/01/18 08:04:36;;;;;;;;;;;0.40;99.90;;;;;;5156646;27;19913;-79
2022/01/18 08:07:02;;;;;;;;;;;0.50;99.90;;;;;;5155612;27;19930;-75
2022/01/18 08:09:27;;;;;;;;;;;0.50;99.90;;;;;;5156127;27;19961;-78
2022/01/18 08:11:53;;;;;;;;;;;0.50;99.90;;;;;;5156467;27;19926;-79
2022/01/18 08:14:19;;;;;;;;;;;0.50;99.90;;;;;;5155500;27;20375;-78
2022/01/18 08:17:00;;;;;;;;;;;0.50;99.90;;;;;;5155978;27;19914;-78
2022/01/18 08:19:29;;;;;;;;;;;0.50;99.90;;;;;;5137133;27;19913;-79
2022/01/18 08:21:54;;;;;;;;;;;0.50;99.90;;;;;;5155888;27;19922;-79
2022/01/18 08:24:20;;;;;;;;;;;0.50;99.90;;;;;;5147097;27;19973;-78
2022/01/18 08:26:46;;;;;;;;;;;0.50;99.90;;;;;;5135074;27;19912;-81
2022/01/18 08:29:12;;;;;;;;;;;0.50;99.90;;;;;;5137167;27;19911;-80
2022/01/18 08:31:38;;;;;;;;;;;0.50;99.90;;;;;;5146168;27;19923;-80
2022/01/18 08:34:04;;;;;;;;;;;0.50;99.90;;;;;;5138850;27;20055;-77
2022/01/18 08:36:29;;;;;;;;;;;0.50;99.90;;;;;;5135689;27;19971;-80
2022/01/18 08:38:55;;;;;;;;;;;0.50;99.90;;;;;;5137058;27;19908;-79
2022/01/18 08:41:21;;;;;;;;;;;0.50;99.90;;;;;;5143542;27;19908;-79
2022/01/18 08:43:47;;;;;;;;;;;0.50;99.90;;;;;;5144412;27;20341;-79
2022/01/18 08:46:12;;;;;;;;;;;0.50;99.90;;;;;;5136949;27;19908;-79
2022/01/18 08:48:38;;;;;;;;;;;0.50;99.90;;;;;;5139916;27;20327;-80
2022/01/18 08:51:04;;;;;;;;;;;0.50;99.90;;;;;;5136169;27;20006;-76
2022/01/18 08:53:30;;;;;;;;;;;0.60;99.90;;;;;;5140083;27;19915;-78
2022/01/18 08:55:55;;;;;;;;;;;0.70;99.90;;;;;;5148495;27;20309;-80
2022/01/18 08:58:21;;;;;;;;;;;0.70;99.90;;;;;;5154494;27;20428;-80
2022/01/18 09:00:47;;;;;;;;;;;0.80;99.90;;;;;;5154902;27;19965;-78
2022/01/18 09:03:13;;;;;;;;;;;0.80;99.90;;;;;;5154514;27;20387;-80
2022/01/18 09:05:38;;;;;;;;;;;0.80;99.90;;;;;;5155305;27;19907;-78
2022/01/18 09:08:07;;;;;;;;;;;0.90;99.90;;;;;;5131831;27;19908;-76
2022/01/18 09:10:33;;;;;;;;;;;0.90;99.90;;;;;;5139140;27;20348;-79
2022/01/18 09:12:58;;;;;;;;;;;1.00;99.90;;;;;;5137262;27;19915;-81
2022/01/18 09:15:25;;;;;;;;;;;1.00;99.90;;;;;;5133940;27;19907;-79
2022/01/18 09:17:51;;;;;;;;;;;1.00;99.90;;;;;;5133978;27;20106;-80
2022/01/18 09:20:17;;;;;;;;;;;1.00;99.90;;;;;;5133299;27;19954;-79
2022/01/18 09:22:44;;;;;;;;;;;1.10;99.90;;;;;;5145807;27;19908;-80
2022/01/18 09:25:12;;;;;;;;;;;1.10;99.90;;;;;;5153022;27;19997;-80
2022/01/18 09:27:38;;;;;;;;;;;1.10;99.90;;;;;;5148592;27;19911;-79
2022/01/18 09:30:04;;;;;;;;;;;1.10;99.90;;;;;;5154894;27;19921;-76
2022/01/18 09:32:30;;;;;;;;;;;1.20;99.90;;;;;;5168345;27;19954;-79
2022/01/18 09:34:55;;;;;;;;;;;1.10;99.90;;;;;;5151930;27;20089;-79
2022/01/18 09:37:21;;;;;;;;;;;1.10;99.90;;;;;;5133113;27;19908;-78
2022/01/18 09:39:47;;;;;;;;;;;1.10;99.90;;;;;;5133671;27;19914;-77
2022/01/18 09:42:12;;;;;;;;;;;1.20;99.90;;;;;;5132957;27;19914;-78
2022/01/18 09:44:39;;;;;;;;;;;1.30;99.90;;;;;;5133669;27;19907;-79
2022/01/18 09:47:05;;;;;;;;;;;1.40;99.90;;;;;;5136485;27;20048;-76
2022/01/18 09:49:34;;;;;;;;;;;1.40;99.90;;;;;;5140936;27;19915;-80
2022/01/18 09:52:00;;;;;;;;;;;1.50;99.90;;;;;;5154174;27;19914;-79
2022/01/18 09:54:26;;;;;;;;;;;1.60;99.90;;;;;;5153495;27;19903;-78
2022/01/18 09:56:51;;;;;;;;;;;1.70;99.90;;;;;;5148728;27;19911;-79
2022/01/18 09:59:17;;;;;;;;;;;1.80;99.90;;;;;;5131987;27;19915;-79
2022/01/18 10:01:43;;;;;;;;;;;1.90;99.90;;;;;;5133443;27;19933;-79
2022/01/18 10:04:17;;;;;;;;;;;1.90;99.90;;;;;;5132565;27;19994;-76
2022/01/18 10:06:47;;;;;;;;;;;2.00;99.90;;;;;;5132931;27;20028;-79
2022/01/18 10:09:13;;;;;;;;;;;2.00;99.90;;;;;;5132238;27;19914;-78
2022/01/18 10:11:57;;;;;;;;;;;2.10;99.90;;;;;;5133156;27;20284;-79
2022/01/18 10:14:23;;;;;;;;;;;2.10;99.90;;;;;;5114004;27;20272;-77
2022/01/18 10:16:48;;;;;;;;;;;2.20;99.90;;;;;;5137702;27;19907;-77
2022/01/18 10:19:27;;;;;;;;;;;2.30;99.90;;;;;;5139295;27;19908;-78
2022/01/18 10:21:54;;;;;;;;;;;2.40;99.90;;;;;;5133193;27;19954;-78
2022/01/18 10:24:22;;;;;;;;;;;2.40;99.90;;;;;;5131742;27;20283;-78
2022/01/18 10:26:55;;;;;;;;;;;2.50;99.90;;;;;;5132760;28;20244;-78
2022/01/18 10:29:31;;;;;;;;;;;2.60;99.90;;;;;;5150059;27;19986;-78
2022/01/18 10:37:04;;;;;;;;;;;2.70;99.90;;;;;;5133516;28;20002;-80
2022/01/18 10:39:32;;;;;;;;;;;2.70;99.90;;;;;;5132020;27;19908;-80
2022/01/18 10:41:58;;;;;;;;;;;2.80;99.90;;;;;;5132259;27;19930;-76
2022/01/18 10:44:24;;;;;;;;;;;2.80;99.90;;;;;;5143400;27;19911;-81
2022/01/18 10:46:54;;;;;;;;;;;2.90;99.90;;;;;;5132352;28;19915;-81
2022/01/18 10:49:25;;;;;;;;;;;2.90;99.90;;;;;;5132005;28;19908;-80
2022/01/18 10:52:20;;;;;;;;;;;3.10;99.90;;;;;;5132337;28;19915;-81
2022/01/18 10:54:51;;;;;;;;;;;3.20;99.90;;;;;;5130450;27;19908;-82
2022/01/18 10:57:18;;;;;;;;;;;3.40;99.90;;;;;;5134491;27;19912;-81
2022/01/18 10:59:44;;;;;;;;;;;4.20;99.90;;;;;;5128856;27;19911;-81
2022/01/18 11:02:19;;;;;;;;;;;4.50;99.90;;;;;;5135470;27;20260;-77
2022/01/18 11:04:49;;;;;;;;;;;4.80;99.90;;;;;;5137266;27;19940;-81
2022/01/18 11:07:16;;;;;;;;;;;5.20;99.90;;;;;;5150027;27;20363;-82
2022/01/18 11:09:42;;;;;;;;;;;5.60;99.90;;;;;;5137253;27;19919;-81
2022/01/18 11:12:08;;;;;;;;;;;6.00;99.90;;;;;;5136883;27;19916;-77
2022/01/18 11:14:37;;;;;;;;;;;6.20;99.90;;;;;;5137120;27;19911;-81
2022/01/18 11:17:03;;;;;;;;;;;6.30;99.90;;;;;;5137265;27;19907;-80
2022/01/18 11:19:32;;;;;;;;;;;6.40;99.90;;;;;;5135885;27;19929;-81
2022/01/18 11:22:00;;;;;;;;;;;6.60;99.90;;;;;;5134561;27;19915;-81
2022/01/18 11:24:26;;;;;;;;;;;6.70;99.90;;;;;;5135757;27;19912;-81
2022/01/18 11:26:51;;;;;;;;;;;6.90;99.90;;;;;;5135685;27;19918;-80
2022/01/18 11:29:19;;;;;;;;;;;7.10;99.90;;;;;;5135146;27;19908;-80
2022/01/18 11:31:49;;;;;;;;;;;7.10;99.90;;;;;;5135844;27;20010;-82
2022/01/18 11:34:36;;;;;;;;;;;7.20;99.90;;;;;;5134950;27;19914;-81
2022/01/18 11:37:23;;;;;;;;;;;7.30;99.90;;;;;;5135662;27;19919;-81
2022/01/18 11:39:56;;;;;;;;;;;7.50;99.90;;;;;;5152816;27;19915;-80
2022/01/18 11:42:21;;;;;;;;;;;7.60;99.90;;;;;;5154349;27;19954;-80
2022/01/18 11:44:47;;;;;;;;;;;7.70;99.90;;;;;;5134720;27;19946;-81
2022/01/18 11:47:26;;;;;;;;;;;7.80;99.90;;;;;;5134291;27;19908;-81
2022/01/18 11:49:52;;;;;;;;;;;7.90;99.90;;;;;;5136036;27;19907;-82
2022/01/18 11:52:36;;;;;;;;;;;8.00;99.90;;;;;;5134150;27;19922;-81
2022/01/18 11:55:04;;;;;;;;;;;8.00;99.90;;;;;;5135039;27;19908;-80
2022/01/18 11:57:30;;;;;;;;;;;8.20;99.90;;;;;;5126685;27;19919;-82
2022/01/18 11:59:58;;;;;;;;;;;8.30;99.90;;;;;;5116189;27;19907;-81
2022/01/18 12:02:28;;;;;;;;;;;8.40;99.90;;;;;;5134416;27;20006;-81
2022/01/18 12:05:01;;;;;;;;;;;8.40;99.90;;;;;;5135177;27;19911;-81
2022/01/18 12:07:39;;;;;;;;;;;8.50;99.90;;;;;;5134319;27;19911;-81
2022/01/18 12:10:08;;;;;;;;;;;8.50;99.90;;;;;;5134413;27;19951;-80
2022/01/18 12:12:40;;;;;;;;;;;8.60;99.90;;;;;;5135038;27;19915;-81
2022/01/18 12:15:26;;;;;;;;;;;8.70;99.90;;;;;;5135175;27;19953;-81
2022/01/18 12:17:52;;;;;;;;;;;8.70;99.90;;;;;;5116724;27;19956;-80
2022/01/18 12:20:46;;;;;;;;;;;8.90;99.90;;;;;;5134076;27;19968;-80
2022/01/18 12:23:13;;;;;;;;;;;9.00;99.90;;;;;;5134310;27;19908;-79
2022/01/18 12:26:14;;;;;;;;;;;9.00;99.90;;;;;;5135028;27;20294;-80
2022/01/18 12:31:51;;;;;;;;;;;8.90;99.90;;;;;;5134003;27;20401;-80
2022/01/18 12:37:06;;;;;;;;;;;9.00;99.90;;;;;;5134647;27;19908;-78
2022/01/18 12:39:54;;;;;;;;;;;9.00;99.90;;;;;;5133835;27;19911;-80
2022/01/18 12:45:10;;;;;;;;;;;9.40;99.90;;;;;;5094564;27;19994;-75
2022/01/18 12:47:37;;;;;;;;;;;9.50;99.90;;;;;;5142629;27;20057;-80
2022/01/18 12:50:04;;;;;;;;;;;9.50;99.90;;;;;;5143084;27;19966;-79
2022/01/18 12:52:46;;;;;;;;;;;9.40;99.90;;;;;;5142958;27;19911;-80
2022/01/18 12:55:30;;;;;;;;;;;9.30;99.90;;;;;;5137414;27;19959;-78
2022/01/18 12:58:06;;;;;;;;;;;9.30;99.90;;;;;;5149790;27;19911;-80
2022/01/18 13:00:35;;;;;;;;;;;9.30;99.90;;;;;;5154521;27;19911;-80
2022/01/18 13:03:01;;;;;;;;;;;9.30;99.90;;;;;;5154040;27;19911;-79
2022/01/18 13:05:37;;;;;;;;;;;9.30;99.90;;;;;;5134556;27;20312;-78
2022/01/18 13:08:03;;;;;;;;;;;9.30;99.90;;;;;;5137421;27;20308;-79
2022/01/18 13:10:42;;;;;;;;;;;9.30;99.90;;;;;;5150067;27;19988;-80
2022/01/18 13:13:09;;;;;;;;;;;9.40;99.90;;;;;;5136159;27;19997;-75
2022/01/18 13:15:46;;;;;;;;;;;9.40;99.90;;;;;;5135732;27;20275;-79
2022/01/18 13:24:08;;;;;;;;;;;9.50;99.90;;;;;;5141661;27;20380;-80
2022/01/18 13:26:38;;;;;;;;;;;9.60;99.90;;;;;;5142434;27;19959;-80
2022/01/18 13:29:19;;;;;;;;;;;9.60;99.90;;;;;;5126760;27;20356;-79
2022/01/18 13:31:47;;;;;;;;;;;9.60;99.90;;;;;;5152577;27;19919;-81
2022/01/18 13:34:15;;;;;;;;;;;9.60;99.90;;;;;;5153831;27;19915;-78
2022/01/18 13:36:58;;;;;;;;;;;9.60;99.90;;;;;;5154723;27;19911;-79
2022/01/18 13:39:31;;;;;;;;;;;9.60;99.90;;;;;;5153854;27;19946;-80
2022/01/18 13:41:59;;;;;;;;;;;9.60;99.90;;;;;;5154358;27;19914;-80
2022/01/18 13:44:25;;;;;;;;;;;9.50;99.90;;;;;;5153495;27;19953;-81
2022/01/18 13:46:50;;;;;;;;;;;9.50;99.90;;;;;;5154412;27;19908;-80
2022/01/18 13:49:16;;;;;;;;;;;9.50;99.90;;;;;;5123251;27;19911;-79
2022/01/18 13:52:02;;;;;;;;;;;9.50;99.90;;;;;;5144476;27;19921;-79
2022/01/18 13:54:41;;;;;;;;;;;9.40;99.90;;;;;;5126141;27;19907;-80
2022/01/18 13:57:06;;;;;;;;;;;9.50;99.90;;;;;;5151816;27;19907;-80
2022/01/18 13:59:32;;;;;;;;;;;9.50;99.90;;;;;;5153112;27;19910;-80
2022/01/18 14:02:08;;;;;;;;;;;9.50;99.90;;;;;;5154018;27;20431;-80
2022/01/18 14:04:34;;;;;;;;;;;9.50;99.90;;;;;;5153824;27;19915;-80
2022/01/18 14:07:02;;;;;;;;;;;9.50;99.90;;;;;;5154145;27;19907;-78
2022/01/18 14:09:28;;;;;;;;;;;9.50;99.90;;;;;;5152731;27;20422;-80
2022/01/18 14:11:54;;;;;;;;;;;9.60;99.90;;;;;;5135552;27;19992;-79
2022/01/18 14:14:25;;;;;;;;;;;9.60;99.90;;;;;;5149086;27;19907;-81
2022/01/18 14:17:00;;;;;;;;;;;9.60;99.90;;;;;;5142362;27;19908;-80
2022/01/18 14:19:28;;;;;;;;;;;9.60;99.90;;;;;;5132000;27;19911;-80
2022/01/18 14:21:54;;;;;;;;;;;9.50;99.90;;;;;;5132581;27;19916;-79
2022/01/18 14:24:21;;;;;;;;;;;9.50;99.90;;;;;;5132329;27;19998;-80
2022/01/18 14:26:53;;;;;;;;;;;9.40;99.90;;;;;;5133442;27;19951;-79
2022/01/18 14:29:51;;;;;;;;;;;9.40;99.90;;;;;;5131855;28;19907;-79
2022/01/18 14:32:26;;;;;;;;;;;9.40;99.90;;;;;;5074689;28;20376;-79
2022/01/18 14:34:53;;;;;;;;;;;9.40;99.90;;;;;;5114283;28;19908;-79
2022/01/18 14:37:19;;;;;;;;;;;9.30;99.90;;;;;;5113280;28;19960;-79
2022/01/18 14:40:00;;;;;;;;;;;9.30;99.90;;;;;;5132485;28;19911;-79
2022/01/18 14:42:30;;;;;;;;;;;9.20;99.90;;;;;;5134586;27;19907;-79
2022/01/18 14:45:19;;;;;;;;;;;9.20;99.90;;;;;;5137792;27;20009;-79
2022/01/18 14:47:45;;;;;;;;;;;9.20;99.90;;;;;;5132208;28;20252;-79
2022/01/18 14:50:13;;;;;;;;;;;9.10;99.90;;;;;;5132148;28;20044;-77
2022/01/18 14:52:39;;;;;;;;;;;9.10;99.90;;;;;;5132180;28;19915;-79
2022/01/18 14:55:05;;;;;;;;;;;9.10;99.90;;;;;;5137732;27;19907;-79
2022/01/18 14:57:31;;;;;;;;;;;9.10;99.90;;;;;;5131341;28;19994;-78
2022/01/18 14:59:57;;;;;;;;;;;9.10;99.90;;;;;;5134430;27;19907;-79
2022/01/18 15:02:23;;;;;;;;;;;9.00;99.90;;;;;;5138418;27;20344;-82
2022/01/18 15:04:49;;;;;;;;;;;9.00;99.90;;;;;;5132770;27;19931;-79
2022/01/18 15:07:15;;;;;;;;;;;9.00;99.90;;;;;;5131106;27;20360;-79
2022/01/18 15:09:40;;;;;;;;;;;9.00;99.90;;;;;;5144040;27;19969;-80
2022/01/18 15:12:06;;;;;;;;;;;9.00;99.90;;;;;;5149860;27;19916;-80
2022/01/18 15:14:32;;;;;;;;;;;9.00;99.90;;;;;;5131609;27;19903;-81
2022/01/18 15:16:58;;;;;;;;;;;9.00;99.90;;;;;;5121776;27;20209;-80
2022/01/18 15:19:23;;;;;;;;;;;9.00;99.90;;;;;;5142326;27;19917;-80
2022/01/18 15:21:49;;;;;;;;;;;9.00;99.90;;;;;;5140717;27;19953;-79
2022/01/18 15:24:15;;;;;;;;;;;9.00;99.90;;;;;;5140420;27;19960;-78
2022/01/18 15:26:41;;;;;;;;;;;9.00;99.90;;;;;;5141909;27;19911;-78
2022/01/18 15:29:07;;;;;;;;;;;9.10;99.90;;;;;;5148507;27;20006;-80
2022/01/18 15:31:33;;;;;;;;;;;9.10;99.90;;;;;;5144012;27;19915;-79
2022/01/18 15:33:58;;;;;;;;;;;9.10;99.90;;;;;;5152587;27;19907;-79
2022/01/18 15:36:24;;;;;;;;;;;9.10;99.90;;;;;;5144278;27;19918;-79
2022/01/18 15:38:50;;;;;;;;;;;9.20;99.90;;;;;;5145575;27;19911;-79
2022/01/18 15:41:15;;;;;;;;;;;9.20;99.90;;;;;;5151536;27;20303;-77
2022/01/18 15:43:41;;;;;;;;;;;9.10;99.90;;;;;;5162889;27;19907;-77
2022/01/18 15:46:07;;;;;;;;;;;9.20;99.90;;;;;;5147956;27;19907;-76
2022/01/18 15:48:33;;;;;;;;;;;9.20;99.90;;;;;;5150227;27;19993;-79
2022/01/18 15:50:58;;;;;;;;;;;9.10;99.90;;;;;;5156271;27;20368;-78
2022/01/18 15:53:24;;;;;;;;;;;9.20;99.90;;;;;;5155494;27;19907;-80
2022/01/18 15:55:50;;;;;;;;;;;9.20;99.90;;;;;;5156576;27;20332;-80
2022/01/18 15:58:16;;;;;;;;;;;9.30;99.90;;;;;;5120005;27;19972;-80
2022/01/18 16:00:43;;;;;;;;;;;9.20;99.90;;;;;;5156190;27;20355;-79
2022/01/18 16:03:10;;;;;;;;;;;9.30;99.90;;;;;;5137495;27;19907;-79
2022/01/18 16:05:37;;;;;;;;;;;9.30;99.90;;;;;;5155624;27;19908;-79